Time;durP1;ratioP1;P1;durP2;ratioP2;P2;SDS_P1;SDS_P2;PMS_P1;PMS_P2;Temp;Humidity;BMP_temperature;BMP_pressure;BME280_temperature;BME280_humidity;BME280_pressure;Samples;Min_cycle;Max_cycle;Signal;HPM_P1;HPM_P2
2023/07/01 00:01:09;;;;;;;10.27;3.03;;;;;;;18.69;96.30;100620.03;5008781;28;20057;-60
2023/07/01 00:03:40;;;;;;;7.97;2.30;;;;;;;18.72;92.99;100614.38;5011716;28;20057;-60
2023/07/01 00:06:08;;;;;;;7.60;2.42;;;;;;;18.63;91.27;100604.66;5011616;28;20096;-60
2023/07/01 00:08:36;;;;;;;6.65;2.08;;;;;;;18.68;90.50;100601.50;5011562;28;20459;-60
2023/07/01 00:11:07;;;;;;;5.95;2.10;;;;;;;18.62;89.39;100604.81;5011185;28;20524;-62
2023/07/01 00:13:35;;;;;;;6.93;2.10;;;;;;;18.65;89.94;100586.72;5008200;28;20081;-61
2023/07/01 00:16:04;;;;;;;6.65;2.47;;;;;;;18.64;89.01;100589.50;5008974;28;20446;-60
2023/07/01 00:18:32;;;;;;;5.80;2.00;;;;;;;18.71;87.94;100586.06;5011280;28;20509;-60
2023/07/01 00:21:01;;;;;;;6.38;2.05;;;;;;;18.67;86.62;100574.06;5009384;28;20042;-61
2023/07/01 00:23:29;;;;;;;12.43;2.53;;;;;;;18.58;87.38;100569.69;5007444;28;20125;-61
2023/07/01 00:25:57;;;;;;;8.00;2.30;;;;;;;18.54;87.81;100571.00;5008089;28;20049;-62
2023/07/01 00:28:26;;;;;;;6.07;2.03;;;;;;;18.56;86.66;100571.69;5008738;28;20046;-60
2023/07/01 00:30:55;;;;;;;7.18;2.25;;;;;;;18.56;86.45;100575.16;5024375;28;20050;-61
2023/07/01 00:33:23;;;;;;;5.65;1.98;;;;;;;18.53;87.16;100572.00;5007255;28;20050;-60
2023/07/01 00:35:51;;;;;;;7.03;2.10;;;;;;;18.54;88.48;100563.84;5011010;28;20038;-61
2023/07/01 00:38:19;;;;;;;6.88;2.40;;;;;;;18.55;88.60;100559.34;5007633;28;20412;-61
2023/07/01 00:40:48;;;;;;;7.95;2.40;;;;;;;18.61;89.65;100563.22;5008538;28;20128;-61
2023/07/01 00:43:16;;;;;;;7.68;2.30;;;;;;;18.58;88.13;100553.69;5007243;28;20505;-61
2023/07/01 00:45:46;;;;;;;6.88;2.22;;;;;;;18.61;88.91;100548.09;5007810;28;20053;-61
2023/07/01 00:48:24;;;;;;;11.07;2.10;;;;;;;18.56;88.11;100542.41;5007026;28;20033;-61
2023/07/01 00:50:53;;;;;;;5.03;2.08;;;;;;;18.62;88.23;100539.06;5008806;28;20534;-61
2023/07/01 00:53:24;;;;;;;7.35;2.00;;;;;;;18.68;88.23;100532.28;5010299;28;20037;-61
2023/07/01 00:55:53;;;;;;;6.50;2.20;;;;;;;18.62;87.93;100527.59;5008221;28;20049;-61
2023/07/01 00:58:21;;;;;;;8.68;2.03;;;;;;;18.62;85.56;100522.28;5007342;28;20400;-61
2023/07/01 01:00:51;;;;;;;7.13;2.25;;;;;;;18.56;85.87;100521.09;5010358;28;20062;-60
2023/07/01 01:03:26;;;;;;;5.07;1.95;;;;;;;18.62;85.21;100522.28;5005717;28;20062;-60
2023/07/01 01:06:03;;;;;;;7.72;2.40;;;;;;;18.57;84.54;100525.44;5008681;28;20053;-62
2023/07/01 01:08:40;;;;;;;7.97;2.13;;;;;;;18.58;84.17;100516.44;5011273;28;20129;-62
2023/07/01 01:11:12;;;;;;;5.53;1.98;;;;;;;18.60;84.47;100514.44;5008692;28;20038;-60
2023/07/01 01:13:42;;;;;;;6.68;2.05;;;;;;;18.61;85.08;100517.94;5008001;28;20517;-62
2023/07/01 01:16:15;;;;;;;4.10;2.05;;;;;;;18.62;86.98;100514.28;5009529;28;20530;-61
2023/07/01 01:18:44;;;;;;;7.30;1.98;;;;;;;18.58;86.51;100506.63;5006298;28;20068;-60
2023/07/01 01:21:16;;;;;;;6.65;1.90;;;;;;;18.60;87.73;100506.47;5022290;28;20049;-61
2023/07/01 01:23:53;;;;;;;7.65;2.38;;;;;;;18.58;87.60;100500.44;5013170;28;20080;-62
2023/07/01 01:26:22;;;;;;;8.02;1.92;;;;;;;18.62;87.17;100492.97;5015686;28;20461;-61
2023/07/01 01:28:52;;;;;;;6.72;2.50;;;;;;;18.67;87.20;100496.00;5007629;28;20527;-62
2023/07/01 01:31:20;;;;;;;4.70;2.13;;;;;;;18.63;87.80;100487.50;5011669;28;20042;-61
2023/07/01 01:33:49;;;;;;;10.40;2.50;;;;;;;18.54;88.30;100485.78;5014685;28;20042;-61
2023/07/01 01:36:24;;;;;;;6.32;1.85;;;;;;;18.55;88.87;100472.31;5014522;28;20042;-61
2023/07/01 01:38:57;;;;;;;9.38;2.35;;;;;;;18.54;89.68;100476.00;5014610;28;20046;-61
2023/07/01 01:41:31;;;;;;;5.75;2.33;;;;;;;18.59;89.73;100470.16;5013015;28;20138;-60
2023/07/01 01:44:05;;;;;;;6.38;1.90;;;;;;;18.50;90.18;100466.66;5010454;28;20056;-61
2023/07/01 01:46:36;;;;;;;5.97;2.00;;;;;;;18.53;91.15;100462.84;5008578;28;20505;-61
2023/07/01 01:49:08;;;;;;;13.02;2.70;;;;;;;18.61;89.66;100452.22;5013938;28;20501;-61
2023/07/01 01:51:40;;;;;;;5.07;2.00;;;;;;;18.56;90.27;100454.53;5015658;28;20053;-62
2023/07/01 01:54:11;;;;;;;6.80;2.30;;;;;;;18.61;90.16;100446.03;5008495;28;20049;-62
2023/07/01 01:56:41;;;;;;;5.70;2.13;;;;;;;18.53;91.45;100446.88;5020348;28;20054;-61
2023/07/01 01:59:10;;;;;;;6.38;2.20;;;;;;;18.53;92.11;100445.03;5010106;28;20411;-61
2023/07/01 02:01:39;;;;;;;4.28;1.67;;;;;;;18.48;92.22;100436.69;5026477;28;20053;-60
2023/07/01 02:04:07;;;;;;;4.80;1.75;;;;;;;18.53;92.96;100438.88;5020504;28;20053;-62
2023/07/01 02:06:36;;;;;;;5.68;1.98;;;;;;;18.47;92.92;100432.34;5023659;28;20049;-61
2023/07/01 02:09:05;;;;;;;4.47;2.00;;;;;;;18.45;93.33;100436.16;5026037;28;20076;-61
2023/07/01 02:11:33;;;;;;;11.25;2.20;;;;;;;18.44;93.63;100434.50;5012747;28;20128;-61
2023/07/01 02:14:01;;;;;;;6.00;2.50;;;;;;;18.40;94.28;100436.66;5010476;28;20084;-60
2023/07/01 02:16:33;;;;;;;6.85;2.00;;;;;;;18.42;95.62;100437.34;5015538;28;20053;-60
2023/07/01 02:19:04;;;;;;;6.63;2.10;;;;;;;18.42;96.03;100432.84;5013348;28;20100;-64
2023/07/01 02:21:32;;;;;;;7.35;2.25;;;;;;;18.44;96.51;100432.69;5018953;28;20555;-62
2023/07/01 02:24:00;;;;;;;7.38;2.28;;;;;;;18.48;97.33;100426.03;5011013;28;20061;-61
2023/07/01 02:26:29;;;;;;;6.30;1.90;;;;;;;18.49;97.00;100424.22;5010626;28;20221;-60
2023/07/01 02:28:57;;;;;;;7.13;2.15;;;;;;;18.45;98.95;100420.19;5016777;28;20092;-61
2023/07/01 02:31:25;;;;;;;5.55;2.05;;;;;;;18.42;98.92;100413.38;5016505;28;20042;-61
2023/07/01 02:34:00;;;;;;;8.13;2.17;;;;;;;18.40;99.75;100407.38;5010816;28;20099;-61
2023/07/01 02:36:28;;;;;;;5.80;2.28;;;;;;;18.38;100.00;100396.91;5018542;28;20049;-61
2023/07/01 02:38:56;;;;;;;6.97;2.20;;;;;;;18.36;100.00;100416.69;5027335;28;20654;-61
2023/07/01 02:41:24;;;;;;;3.70;1.92;;;;;;;18.37;100.00;100397.06;5020169;28;20493;-60
2023/07/01 02:43:55;;;;;;;9.65;2.50;;;;;;;18.32;100.00;100394.84;5025127;28;20045;-61
2023/07/01 02:46:24;;;;;;;8.73;2.25;;;;;;;18.33;100.00;100393.88;5021988;28;20072;-60
2023/07/01 02:48:52;;;;;;;5.63;2.28;;;;;;;18.20;100.00;100386.34;5007522;28;20386;-60
2023/07/01 02:51:22;;;;;;;9.30;2.20;;;;;;;18.24;100.00;100394.84;5020832;28;20087;-60
2023/07/01 02:53:50;;;;;;;9.05;2.08;;;;;;;18.21;100.00;100388.00;5027451;28;20061;-59
2023/07/01 02:56:21;;;;;;;5.35;2.15;;;;;;;18.25;100.00;100391.19;5013880;28;20042;-60
2023/07/01 02:58:49;;;;;;;9.00;2.22;;;;;;;18.26;100.00;100384.88;5027626;28;20420;-59
2023/07/01 03:01:17;;;;;;;7.13;2.25;;;;;;;18.26;100.00;100387.53;5008460;28;20045;-61
2023/07/01 03:03:49;;;;;;;6.57;2.15;;;;;;;18.22;100.00;100384.34;5009731;28;20092;-61
2023/07/01 03:06:18;;;;;;;6.97;2.30;;;;;;;18.20;100.00;100377.53;5009266;28;20050;-60
2023/07/01 03:08:48;;;;;;;5.07;1.75;;;;;;;18.18;100.00;100385.66;5009935;28;20385;-60
2023/07/01 03:11:16;;;;;;;8.60;1.90;;;;;;;18.23;100.00;100379.88;5010642;28;20056;-60
2023/07/01 03:13:44;;;;;;;6.43;2.20;;;;;;;18.19;100.00;100379.38;5009053;28;20037;-60
2023/07/01 03:16:12;;;;;;;8.45;2.08;;;;;;;18.26;100.00;100378.72;5008004;28;20711;-61
2023/07/01 03:18:40;;;;;;;5.97;1.90;;;;;;;18.13;100.00;100368.53;5009451;28;20497;-60
2023/07/01 03:21:08;;;;;;;5.03;1.98;;;;;;;18.05;100.00;100367.50;5009357;28;20405;-61
2023/07/01 03:23:39;;;;;;;5.75;1.90;;;;;;;18.07;100.00;100367.34;5007333;28;20077;-59
2023/07/01 03:26:09;;;;;;;4.03;1.88;;;;;;;18.04;100.00;100357.03;5008710;28;20073;-61
2023/07/01 03:28:37;;;;;;;9.07;2.20;;;;;;;17.94;100.00;100367.78;5008559;28;20042;-61
2023/07/01 03:31:05;;;;;;;7.57;2.05;;;;;;;17.98;100.00;100361.13;5008539;28;20084;-61
2023/07/01 03:33:34;;;;;;;6.85;1.63;;;;;;;17.97;100.00;100361.31;5008706;28;20637;-61
2023/07/01 03:36:02;;;;;;;3.60;1.83;;;;;;;17.87;100.00;100351.63;5010023;28;20540;-60
2023/07/01 03:38:30;;;;;;;6.50;2.22;;;;;;;17.81;100.00;100354.91;5010811;28;20046;-60
2023/07/01 03:40:58;;;;;;;6.40;2.40;;;;;;;17.85;100.00;100347.44;5009130;28;20482;-60
2023/07/01 03:43:28;;;;;;;5.47;1.98;;;;;;;17.78;100.00;100349.06;5008044;28;20050;-60
2023/07/01 03:45:56;;;;;;;6.15;2.30;;;;;;;17.72;100.00;100348.72;5008636;28;20057;-61
2023/07/01 03:48:24;;;;;;;6.75;2.40;;;;;;;17.67;100.00;100337.72;5007922;28;20046;-60
2023/07/01 03:50:53;;;;;;;6.88;2.40;;;;;;;17.60;100.00;100336.69;5010115;28;20057;-60
2023/07/01 03:53:23;;;;;;;8.80;2.75;;;;;;;17.60;100.00;100336.69;5011155;28;20493;-59
2023/07/01 03:55:51;;;;;;;6.05;2.25;;;;;;;17.47;100.00;100336.28;5010074;28;20045;-59
2023/07/01 03:58:24;;;;;;;6.07;2.17;;;;;;;17.43;100.00;100327.78;5006627;28;20069;-60
2023/07/01 04:00:54;;;;;;;6.95;2.40;;;;;;;17.44;100.00;100325.94;5008729;28;20555;-60
2023/07/01 04:03:24;;;;;;;;;;;;;;;17.53;100.00;100327.66;5010268;28;20120;-60
2023/07/01 04:05:53;;;;;;;5.03;2.00;;;;;;;17.52;100.00;100336.63;5012075;28;20005;-60
2023/07/01 04:08:21;;;;;;;7.03;2.28;;;;;;;17.46;100.00;100323.97;5011704;28;20046;-60
2023/07/01 04:10:50;;;;;;;4.30;2.00;;;;;;;17.40;100.00;100328.94;5007579;28;20093;-60
2023/07/01 04:13:18;;;;;;;6.63;2.15;;;;;;;17.45;100.00;100324.97;5008523;28;20045;-60
2023/07/01 04:15:46;;;;;;;9.68;2.17;;;;;;;17.42;100.00;100310.16;5010202;28;20536;-59
2023/07/01 04:18:16;;;;;;;6.40;1.77;;;;;;;17.34;100.00;100318.94;5007092;28;20901;-59
2023/07/01 04:20:44;;;;;;;5.97;2.05;;;;;;;17.39;100.00;100308.66;5009209;28;20064;-59
2023/07/01 04:23:12;;;;;;;5.93;1.80;;;;;;;17.39;100.00;100307.81;5010487;28;20489;-62
2023/07/01 04:25:41;;;;;;;4.95;2.20;;;;;;;17.40;100.00;100310.31;5008800;28;20073;-60
2023/07/01 04:28:09;;;;;;;3.08;1.70;;;;;;;17.40;100.00;100306.84;5006245;28;20548;-60
2023/07/01 04:30:37;;;;;;;4.63;1.77;;;;;;;17.34;100.00;100310.97;5008336;28;20069;-60
2023/07/01 04:33:05;;;;;;;4.63;1.65;;;;;;;17.33;100.00;100309.28;5007127;28;20693;-61
2023/07/01 04:35:37;;;;;;;6.78;2.08;;;;;;;17.33;100.00;100306.63;5008658;28;20054;-60
2023/07/01 04:38:05;;;;;;;6.70;2.05;;;;;;;17.35;100.00;100303.81;5007676;28;20077;-61
2023/07/01 04:40:35;;;;;;;4.35;1.90;;;;;;;17.32;100.00;100301.47;5008257;28;20123;-61
2023/07/01 04:43:03;;;;;;;4.18;1.80;;;;;;;17.32;100.00;100298.81;5007424;28;20049;-61
2023/07/01 04:45:33;;;;;;;6.70;2.05;;;;;;;17.30;100.00;100298.97;5007751;28;20038;-59
2023/07/01 04:48:01;;;;;;;5.03;2.00;;;;;;;17.14;100.00;100297.03;5007508;28;20053;-60
2023/07/01 04:50:30;;;;;;;5.28;1.83;;;;;;;17.17;100.00;100299.38;5008383;28;20038;-60
2023/07/01 04:53:00;;;;;;;5.70;2.28;;;;;;;17.14;100.00;100291.72;5007550;28;20034;-60
2023/07/01 04:55:28;;;;;;;4.05;1.90;;;;;;;17.09;100.00;100291.38;5008247;28;20042;-59
2023/07/01 04:57:56;;;;;;;9.55;2.05;;;;;;;17.08;100.00;100289.69;5007567;28;20057;-60
2023/07/01 05:00:24;;;;;;;4.43;1.92;;;;;;;17.00;100.00;100293.13;5007990;28;20080;-60
2023/07/01 05:02:53;;;;;;;2.72;1.70;;;;;;;17.02;100.00;100303.59;5007374;28;20050;-60
2023/07/01 05:05:21;;;;;;;4.43;2.00;;;;;;;16.88;100.00;100287.22;5011257;28;20046;-59
2023/07/01 05:07:49;;;;;;;4.95;2.10;;;;;;;16.95;100.00;100298.06;5011483;28;20054;-59
2023/07/01 05:10:19;;;;;;;4.72;2.03;;;;;;;16.94;100.00;100295.59;5012891;28;20125;-59
2023/07/01 05:12:47;;;;;;;4.80;2.15;;;;;;;16.95;100.00;100290.09;5023075;28;20488;-59
2023/07/01 05:15:15;;;;;;;4.47;2.00;;;;;;;16.92;100.00;100290.44;5010916;28;20069;-59
2023/07/01 05:17:44;;;;;;;5.20;2.30;;;;;;;16.97;100.00;100298.75;5009367;28;20058;-59
2023/07/01 05:20:13;;;;;;;6.70;2.35;;;;;;;16.85;100.00;100289.31;5011322;28;20108;-59
2023/07/01 05:22:41;;;;;;;5.70;2.03;;;;;;;16.93;100.00;100286.75;5010960;28;20046;-59
2023/07/01 05:25:10;;;;;;;5.35;2.38;;;;;;;16.86;100.00;100275.88;5009803;28;20633;-60
2023/07/01 05:27:40;;;;;;;4.65;2.17;;;;;;;16.90;100.00;100282.59;5011085;28;20042;-60
2023/07/01 05:30:09;;;;;;;4.18;1.98;;;;;;;16.69;100.00;100282.91;5010552;28;20128;-60
2023/07/01 05:32:37;;;;;;;4.68;2.15;;;;;;;16.85;100.00;100284.00;5011013;28;20385;-61
2023/07/01 05:35:06;;;;;;;4.93;1.83;;;;;;;16.84;100.00;100277.06;5011143;28;20053;-60
2023/07/01 05:37:34;;;;;;;5.38;2.30;;;;;;;16.83;100.00;100278.88;5013549;28;20050;-60
2023/07/01 05:40:03;;;;;;;5.63;2.50;;;;;;;16.87;100.00;100263.47;5011412;28;20046;-60
2023/07/01 05:42:31;;;;;;;4.65;2.10;;;;;;;16.93;100.00;100262.03;5011540;28;20347;-59
2023/07/01 05:45:01;;;;;;;5.95;2.20;;;;;;;16.89;100.00;100269.47;5009920;28;20057;-59
2023/07/01 05:47:29;;;;;;;3.88;2.30;;;;;;;16.86;100.00;100267.94;5009660;28;20034;-59
2023/07/01 05:49:57;;;;;;;4.07;2.20;;;;;;;16.91;100.00;100259.53;5010779;28;20041;-59
2023/07/01 05:52:25;;;;;;;3.63;1.80;;;;;;;16.77;100.00;100254.75;5010245;28;20064;-60
2023/07/01 05:54:55;;;;;;;5.45;2.20;;;;;;;16.64;100.00;100260.47;5010835;28;20050;-60
2023/07/01 05:57:23;;;;;;;5.32;2.30;;;;;;;16.71;100.00;100261.50;5010533;28;20103;-59
2023/07/01 05:59:51;;;;;;;6.63;2.65;;;;;;;16.73;100.00;100265.69;5010166;28;20048;-60
2023/07/01 06:02:21;;;;;;;5.45;2.25;;;;;;;16.78;100.00;100262.56;5010091;28;20707;-60
2023/07/01 06:04:51;;;;;;;2.75;1.95;;;;;;;16.86;100.00;100267.94;5010976;28;20568;-60
2023/07/01 06:07:19;;;;;;;5.63;2.08;;;;;;;16.72;100.00;100268.50;5010203;28;20492;-58
2023/07/01 06:09:48;;;;;;;4.72;2.20;;;;;;;16.79;100.00;100263.41;5026379;28;20137;-60
2023/07/01 06:12:16;;;;;;;4.40;2.20;;;;;;;16.83;100.00;100267.41;5008586;28;20084;-61
2023/07/01 06:14:45;;;;;;;4.50;2.17;;;;;;;16.86;100.00;100246.69;5008627;28;20046;-60
2023/07/01 06:17:13;;;;;;;4.45;2.10;;;;;;;16.69;100.00;100259.00;5008549;28;20527;-60
2023/07/01 06:19:42;;;;;;;4.63;2.45;;;;;;;16.84;100.00;100250.50;5010222;28;20069;-60
2023/07/01 06:22:10;;;;;;;5.88;2.30;;;;;;;16.72;100.00;100257.88;5009328;28;20053;-60
2023/07/01 06:24:38;;;;;;;5.80;2.33;;;;;;;16.73;100.00;100249.75;5015256;28;20061;-58
2023/07/01 06:27:07;;;;;;;3.83;2.20;;;;;;;16.83;100.00;100249.66;5019148;28;20053;-59
2023/07/01 06:29:35;;;;;;;4.25;2.10;;;;;;;16.97;100.00;100250.13;5022128;28;20038;-60
2023/07/01 06:32:03;;;;;;;4.38;2.13;;;;;;;17.00;100.00;100249.78;5018025;28;20041;-63
2023/07/01 06:34:32;;;;;;;5.57;2.45;;;;;;;16.93;100.00;100254.88;5014432;28;20488;-61
2023/07/01 06:37:02;;;;;;;4.07;2.40;;;;;;;16.86;100.00;100245.84;5014280;28;20041;-59
2023/07/01 06:39:30;;;;;;;4.63;2.35;;;;;;;16.88;100.00;100247.38;5020770;28;20169;-61
2023/07/01 06:41:59;;;;;;;4.72;2.35;;;;;;;16.91;100.00;100240.94;5013495;28;20046;-60
2023/07/01 06:44:27;;;;;;;3.97;2.10;;;;;;;17.05;100.00;100248.31;5008877;28;20503;-60
2023/07/01 06:46:55;;;;;;;4.10;2.15;;;;;;;17.02;100.00;100245.19;5008183;28;20562;-59
2023/07/01 06:49:23;;;;;;;6.22;2.67;;;;;;;17.06;100.00;100243.88;5008856;28;20070;-58
2023/07/01 06:51:51;;;;;;;4.35;2.38;;;;;;;17.08;100.00;100251.69;5009799;28;20401;-60
2023/07/01 06:54:21;;;;;;;5.53;2.83;;;;;;;17.05;100.00;100244.84;5009268;28;20049;-60
2023/07/01 06:56:49;;;;;;;4.57;2.40;;;;;;;17.04;100.00;100246.69;5010068;28;20493;-60
2023/07/01 06:59:17;;;;;;;2.83;1.75;;;;;;;17.06;100.00;100247.34;5008438;28;20157;-59
2023/07/01 07:01:45;;;;;;;5.18;2.25;;;;;;;17.06;100.00;100242.03;5009777;28;20053;-61
2023/07/01 07:04:13;;;;;;;4.15;2.08;;;;;;;17.10;100.00;100242.56;5025269;28;20055;-59
2023/07/01 07:06:42;;;;;;;5.72;2.20;;;;;;;17.21;100.00;100241.47;5027373;28;20571;-60
2023/07/01 07:09:10;;;;;;;5.38;2.22;;;;;;;17.30;100.00;100234.34;5022836;28;20053;-59
2023/07/01 07:11:41;;;;;;;5.93;2.33;;;;;;;17.21;100.00;100234.31;5020472;28;20041;-62
2023/07/01 07:14:09;;;;;;;3.08;1.83;;;;;;;17.27;100.00;100230.19;5010610;28;20153;-59
2023/07/01 07:16:37;;;;;;;3.70;2.10;;;;;;;17.31;100.00;100228.06;5024343;28;20052;-60
2023/07/01 07:19:05;;;;;;;4.85;2.10;;;;;;;17.21;100.00;100229.00;5020833;28;20080;-60
2023/07/01 07:21:36;;;;;;;3.25;2.08;;;;;;;17.33;100.00;100231.38;5009172;28;20041;-60
2023/07/01 07:24:05;;;;;;;5.75;2.22;;;;;;;17.38;100.00;100226.41;5008907;28;20500;-59
2023/07/01 07:26:33;;;;;;;3.97;2.15;;;;;;;17.22;100.00;100228.00;5007902;28;20046;-61
2023/07/01 07:29:03;;;;;;;3.95;2.20;;;;;;;17.22;100.00;100228.00;5007657;28;20058;-60
2023/07/01 07:31:31;;;;;;;4.28;2.05;;;;;;;17.37;100.00;100227.44;5006208;28;20045;-60
2023/07/01 07:33:59;;;;;;;4.45;2.05;;;;;;;17.38;100.00;100227.28;5008463;28;20058;-61
2023/07/01 07:36:27;;;;;;;4.05;2.20;;;;;;;17.42;100.00;100229.59;5008471;28;20978;-60
2023/07/01 07:38:56;;;;;;;2.95;2.08;;;;;;;17.44;100.00;100215.16;5008766;28;20073;-60
2023/07/01 07:41:24;;;;;;;3.75;2.58;;;;;;;17.54;100.00;100226.47;5008911;28;20508;-60
2023/07/01 07:43:52;;;;;;;4.15;2.03;;;;;;;17.50;100.00;100222.47;5008412;28;20053;-59
2023/07/01 07:46:22;;;;;;;5.20;2.08;;;;;;;17.58;100.00;100227.00;5007938;28;20050;-61
2023/07/01 07:48:53;;;;;;;3.25;2.00;;;;;;;17.66;100.00;100223.56;5008911;28;20069;-61
2023/07/01 07:51:21;;;;;;;3.95;2.15;;;;;;;17.65;100.00;100217.38;5008493;28;20409;-61
2023/07/01 07:53:49;;;;;;;4.25;2.40;;;;;;;17.72;100.00;100229.06;5008856;28;20050;-61
2023/07/01 07:56:18;;;;;;;6.05;2.20;;;;;;;17.67;100.00;100219.88;5008542;28;20038;-62
2023/07/01 07:58:46;;;;;;;2.92;1.98;;;;;;;17.74;100.00;100227.06;5008167;28;20132;-61
2023/07/01 08:01:14;;;;;;;4.10;2.53;;;;;;;17.71;100.00;100223.88;5007364;28;20084;-61
2023/07/01 08:03:44;;;;;;;4.05;1.85;;;;;;;17.69;100.00;100226.69;5015083;28;20075;-60
2023/07/01 08:06:12;;;;;;;3.35;2.20;;;;;;;17.66;100.00;100226.22;5011503;28;20075;-60
2023/07/01 08:08:40;;;;;;;4.55;2.15;;;;;;;17.61;100.00;100224.00;5008477;28;20037;-60
2023/07/01 08:11:09;;;;;;;4.80;2.40;;;;;;;17.56;100.00;100218.34;5010113;28;20056;-60
2023/07/01 08:13:37;;;;;;;4.13;2.10;;;;;;;17.52;100.00;100217.00;5023626;28;20060;-60
2023/07/01 08:16:05;;;;;;;4.15;2.30;;;;;;;17.56;100.00;100219.19;5018585;28;20049;-60
2023/07/01 08:18:35;;;;;;;4.60;2.40;;;;;;;17.57;100.00;100212.03;5007578;28;20124;-60
2023/07/01 08:21:04;;;;;;;3.38;2.38;;;;;;;17.57;100.00;100220.00;5006982;28;20089;-59
2023/07/01 08:23:35;;;;;;;3.70;2.43;;;;;;;17.67;100.00;100209.25;5007579;28;20760;-60
2023/07/01 08:26:03;;;;;;;4.88;2.53;;;;;;;17.64;100.00;100215.75;5011098;28;20038;-61
2023/07/01 08:28:31;;;;;;;5.63;2.47;;;;;;;17.68;100.00;100217.09;5010941;28;20092;-60
2023/07/01 08:31:00;;;;;;;5.53;2.50;;;;;;;17.65;100.00;100213.91;5007724;28;20054;-61
2023/07/01 08:33:28;;;;;;;3.80;2.40;;;;;;;17.68;100.00;100218.88;5022648;28;20560;-61
2023/07/01 08:35:57;;;;;;;3.92;2.35;;;;;;;17.70;100.00;100207.09;5008613;28;20053;-59
2023/07/01 08:38:28;;;;;;;3.75;2.45;;;;;;;17.77;100.00;100212.59;5007331;28;20052;-60
2023/07/01 08:41:03;;;;;;;3.53;2.38;;;;;;;17.78;100.00;100197.47;5022209;28;20045;-61
2023/07/01 08:43:33;;;;;;;4.95;2.70;;;;;;;17.89;100.00;100202.50;5030514;28;20049;-60
2023/07/01 08:46:04;;;;;;;8.45;2.60;;;;;;;17.91;100.00;100203.16;5021904;28;20477;-61
2023/07/01 08:48:33;;;;;;;5.75;2.55;;;;;;;17.88;100.00;100203.50;5011033;28;20050;-60
2023/07/01 08:51:09;;;;;;;5.43;2.70;;;;;;;17.89;100.00;100205.16;4992676;28;20046;-60
2023/07/01 08:53:39;;;;;;;3.92;2.28;;;;;;;17.94;100.00;100200.19;5015799;28;20526;-60
2023/07/01 08:56:08;;;;;;;5.60;2.35;;;;;;;17.98;100.00;100200.72;5013675;28;20041;-60
2023/07/01 08:58:37;;;;;;;3.88;2.25;;;;;;;17.97;100.00;100193.72;5010975;28;20100;-59
2023/07/01 09:01:06;;;;;;;3.80;2.20;;;;;;;18.04;100.00;100195.56;5011376;28;20048;-60
2023/07/01 09:03:36;;;;;;;4.15;2.50;;;;;;;18.08;100.00;100202.22;5011583;28;20057;-61
2023/07/01 09:06:06;;;;;;;4.32;2.65;;;;;;;18.08;100.00;100201.41;5011748;28;20058;-59
2023/07/01 09:08:38;;;;;;;3.60;2.30;;;;;;;18.18;100.00;100190.59;5011212;28;20049;-60
2023/07/01 09:11:11;;;;;;;4.47;2.75;;;;;;;18.07;100.00;100194.41;5011764;28;20053;-59
2023/07/01 09:13:39;;;;;;;4.35;2.38;;;;;;;18.10;100.00;100195.91;5010990;28;20050;-60
2023/07/01 09:16:08;;;;;;;4.22;2.40;;;;;;;18.24;100.00;100193.44;5010890;28;20590;-60
2023/07/01 09:18:43;;;;;;;4.45;2.97;;;;;;;18.20;100.00;100193.91;5011926;28;20049;-59
2023/07/01 09:21:19;;;;;;;;;;;;;;;18.26;100.00;100197.75;5020000;28;20345;-59
2023/07/01 09:23:48;;;;;;;7.03;2.97;;;;;;;18.31;100.00;100190.94;5008972;28;20383;-58
2023/07/01 09:26:19;;;;;;;3.58;2.50;;;;;;;18.31;100.00;100190.09;5027116;28;20473;-57
2023/07/01 09:28:49;;;;;;;4.45;2.92;;;;;;;18.36;100.00;100185.94;5025725;28;20049;-58
2023/07/01 09:31:21;;;;;;;3.90;2.53;;;;;;;18.45;100.00;100185.91;5017655;28;20400;-58
2023/07/01 09:34:01;;;;;;;4.35;2.75;;;;;;;18.44;100.00;100177.13;5020208;28;20049;-58
2023/07/01 09:36:31;;;;;;;3.80;2.58;;;;;;;18.49;100.00;100174.78;5017685;28;20041;-58
2023/07/01 09:39:01;;;;;;;5.35;3.13;;;;;;;18.41;100.00;100183.59;5010919;28;20049;-59
2023/07/01 09:41:31;;;;;;;4.82;2.70;;;;;;;18.46;100.00;100177.78;5019673;28;20053;-57
2023/07/01 09:44:00;;;;;;;3.50;2.63;;;;;;;18.38;100.00;100175.13;5017325;28;20060;-58
2023/07/01 09:46:41;;;;;;;5.03;2.78;;;;;;;18.42;100.00;100179.94;5011107;28;20053;-58
2023/07/01 09:49:10;;;;;;;4.55;2.72;;;;;;;18.49;100.00;100176.63;5016745;28;20141;-58
2023/07/01 09:52:00;;;;;;;3.95;2.78;;;;;;;18.53;100.00;100168.13;5024590;28;20127;-61
2023/07/01 09:54:29;;;;;;;4.57;2.95;;;;;;;18.61;100.00;100169.97;5025694;28;20456;-59
2023/07/01 09:57:00;;;;;;;5.03;2.88;;;;;;;18.65;100.00;100176.59;5014586;28;20080;-59
2023/07/01 09:59:28;;;;;;;5.85;3.00;;;;;;;18.59;100.00;100172.75;5009088;28;20100;-60
2023/07/01 10:02:01;;;;;;;3.92;2.58;;;;;;;18.59;100.00;100169.28;5018138;28;20124;-58
2023/07/01 10:04:33;;;;;;;5.63;2.80;;;;;;;18.61;100.00;100164.63;5028133;28;20412;-59
2023/07/01 10:07:01;;;;;;;5.70;2.63;;;;;;;18.58;100.00;100167.59;5015863;28;20392;-59
2023/07/01 10:09:29;;;;;;;4.80;2.95;;;;;;;18.58;100.00;100162.28;5027870;28;20046;-60
2023/07/01 10:12:00;;;;;;;5.20;2.65;;;;;;;18.65;100.00;100160.63;5015552;28;20069;-58
2023/07/01 10:14:32;;;;;;;5.68;3.00;;;;;;;18.70;100.00;100158.25;5027536;28;20060;-60
2023/07/01 10:17:01;;;;;;;5.18;2.92;;;;;;;18.67;100.00;100160.47;5014798;28;20053;-59
2023/07/01 10:19:31;;;;;;;4.30;2.67;;;;;;;18.81;100.00;100159.75;5011145;28;20050;-59
2023/07/01 10:22:25;;;;;;;5.55;2.80;;;;;;;18.59;100.00;100156.78;5018929;28;20049;-60
2023/07/01 10:25:01;;;;;;;5.07;2.95;;;;;;;18.77;100.00;100157.59;5027317;28;20133;-59
2023/07/01 10:28:05;;;;;;;4.90;2.75;;;;;;;18.65;100.00;100151.78;5013725;28;20157;-59
2023/07/01 10:31:09;;;;;;;4.78;3.20;;;;;;;18.78;100.00;100153.94;5008755;28;20485;-59
2023/07/01 10:34:04;;;;;;;5.20;2.78;;;;;;;18.86;100.00;100159.25;5013399;28;20052;-59
2023/07/01 10:36:36;;;;;;;4.00;2.60;;;;;;;18.97;100.00;100160.75;5020433;28;20147;-60
2023/07/01 10:39:33;;;;;;;5.13;2.75;;;;;;;18.89;100.00;100156.25;5017728;28;20088;-59
2023/07/01 10:42:02;;;;;;;5.82;2.50;;;;;;;18.81;100.00;100158.91;5012947;28;20033;-59
2023/07/01 10:44:31;;;;;;;4.97;2.70;;;;;;;18.80;100.00;100152.78;5021985;28;20048;-58
2023/07/01 10:47:17;;;;;;;4.32;2.60;;;;;;;18.91;100.00;100154.28;5019318;28;20128;-59
2023/07/01 10:50:07;;;;;;;4.47;2.65;;;;;;;18.98;100.00;100149.91;5014452;28;20046;-59
2023/07/01 10:53:03;;;;;;;5.68;2.97;;;;;;;19.02;100.00;100153.03;5013774;28;20500;-59
2023/07/01 10:55:40;;;;;;;4.80;3.10;;;;;;;19.00;100.00;100147.91;5020626;28;20073;-59
2023/07/01 10:58:16;;;;;;;5.18;2.78;;;;;;;19.01;100.00;100148.75;5004996;28;20046;-59
2023/07/01 11:00:47;;;;;;;6.03;3.08;;;;;;;19.07;100.00;100145.38;5016375;28;20080;-60
2023/07/01 11:03:56;;;;;;;5.13;3.10;;;;;;;19.08;100.00;100139.03;5023229;28;20501;-58
2023/07/01 11:06:24;;;;;;;6.28;3.17;;;;;;;19.17;100.00;100145.16;5000511;28;20489;-58
2023/07/01 11:08:54;;;;;;;7.78;3.42;;;;;;;19.20;100.00;100139.50;5013077;28;20059;-59
2023/07/01 11:11:24;;;;;;;5.40;3.22;;;;;;;19.23;100.00;100141.81;5017434;28;20046;-60
2023/07/01 11:14:11;;;;;;;5.68;3.28;;;;;;;19.32;100.00;100137.25;5014340;28;20045;-60
2023/07/01 11:16:41;;;;;;;5.60;3.22;;;;;;;19.36;100.00;100149.25;5014711;28;20053;-59
2023/07/01 11:19:11;;;;;;;6.43;2.92;;;;;;;19.62;100.00;100145.44;5012117;28;20054;-59
2023/07/01 11:21:39;;;;;;;5.82;3.25;;;;;;;19.80;100.00;100137.19;5010225;28;20489;-60
2023/07/01 11:24:09;;;;;;;6.05;3.05;;;;;;;19.97;100.00;100143.25;5013354;28;20049;-61
2023/07/01 11:26:39;;;;;;;5.55;3.40;;;;;;;20.08;100.00;100124.97;5009443;28;20052;-60
2023/07/01 11:29:16;;;;;;;6.03;3.67;;;;;;;20.00;100.00;100133.06;5011230;28;20042;-61
2023/07/01 11:31:46;;;;;;;5.57;3.40;;;;;;;20.15;100.00;100132.25;5022328;28;20049;-60
2023/07/01 11:34:17;;;;;;;5.60;3.47;;;;;;;20.18;100.00;100138.06;5012893;28;20563;-61